MSC Maria Saveria — 3FLE8 — position and weather

sailwx.info

Track history (hours):
 
Tides and Currents Weather Stations Pressure Air Temp Water Temp Dewpoint Dewpoint Depression Visibility Wind Speed Wind Dir Waves Ship Positions

MSC Maria Saveria

Last reported at 2018-Feb-21 22:59 UTC. Time now 2018-Feb-21 23:26 UTC.
Position N 36°28' E 014°46'.

Length 366 m; draft 15.2 m.

Type: Ship (hazmat cat A). MMSI: 372400000.

Date/timePositionNaut miles runAvg speedWind from/ knotsBaromVisibWave heightAir tempDewpointWater temp
2018-Feb-21 22:59N 36°28' E 014°46'42917.3
2018-Feb-20 22:08N 37°23' E 023°38'319.4
2018-Feb-20 22:00N 37°26' E 023°39'1019.3
2018-Feb-20 21:30N 37°35' E 023°41'918.6
2018-Feb-20 21:00N 37°45' E 023°40'918.3
2018-Feb-20 20:30N 37°53' E 023°37'4 7.3
2018-Feb-20 20:00N 37°57' E 023°36'0 1.0
2018-Feb-20 19:29N 37°57' E 023°36'0 0.0
2018-Feb-20 19:00N 37°57' E 023°36'0 0.0
2018-Feb-20 18:29N 37°57' E 023°36'0 0.0
2018-Feb-20 17:59N 37°57' E 023°36'0 0.0
2018-Feb-20 17:29N 37°57' E 023°36'0 0.0
2018-Feb-20 16:59N 37°57' E 023°36'0 0.0
2018-Feb-20 16:29N 37°57' E 023°36'0 0.0
2018-Feb-20 15:59N 37°57' E 023°36'0 0.0
2018-Feb-20 15:29N 37°57' E 023°36'0 0.0
2018-Feb-20 14:59N 37°57' E 023°36'0 0.0
2018-Feb-20 14:29N 37°57' E 023°36'0 0.0
2018-Feb-20 14:00N 37°57' E 023°36'0 0.0
2018-Feb-20 13:29N 37°57' E 023°36'0 0.0
2018-Feb-20 13:00N 37°57' E 023°36'0 0.0
2018-Feb-20 12:30N 37°57' E 023°36'0 0.0
2018-Feb-20 12:00N 37°57' E 023°36'0 0.0
2018-Feb-20 11:29N 37°57' E 023°36'0 0.0
2018-Feb-20 10:59N 37°57' E 023°36'0 0.0
2018-Feb-20 10:29N 37°57' E 023°36'0 0.0
2018-Feb-20 09:59N 37°57' E 023°36'0 0.0
2018-Feb-20 09:29N 37°57' E 023°36'0 0.1
2018-Feb-20 09:00N 37°57' E 023°36'2 4.1
2018-Feb-20 08:30N 37°56' E 023°35'2 4.3
2018-Feb-20 08:00N 37°53' E 023°35'2 3.0
2018-Feb-20 07:30N 37°52' E 023°35'0 0.8
2018-Feb-20 07:00N 37°52' E 023°35'1 1.0
2018-Feb-20 06:30N 37°53' E 023°35'0 0.4
2018-Feb-20 06:00N 37°53' E 023°36'1 1.1
2018-Feb-20 05:30N 37°52' E 023°35'0 0.9
2018-Feb-20 05:00N 37°53' E 023°36'0 0.9
2018-Feb-20 04:30N 37°53' E 023°36'0 0.5
2018-Feb-20 04:00N 37°53' E 023°36'1 1.4
2018-Feb-20 03:30N 37°53' E 023°37'611.0
2018-Feb-20 03:00N 37°48' E 023°41'612.0
2018-Feb-20 02:30N 37°43' E 023°44'612.0
2018-Feb-20 02:00N 37°38' E 023°49'713.5
2018-Feb-20 01:30N 37°33' E 023°54'  
Track history (hours):
 
Tides and Currents Weather Stations Pressure Air Temp Water Temp Dewpoint Dewpoint Depression Visibility Wind Speed Wind Dir Waves Ship Positions

MSC Maria Saveria

Last reported at 2018-Feb-21 22:59 UTC. Time now 2018-Feb-21 23:26 UTC.
Position N 36°28' E 014°46'.

Length 366 m; draft 15.2 m.

Type: Ship (hazmat cat A). MMSI: 372400000.

Date/timePositionNaut miles runAvg speedWind from/ knotsBaromVisibWave heightAir tempDewpointWater temp
2018-Feb-21 22:59N 36°28' E 014°46'42917.3
2018-Feb-20 22:08N 37°23' E 023°38'319.4
2018-Feb-20 22:00N 37°26' E 023°39'1019.3
2018-Feb-20 21:30N 37°35' E 023°41'918.6
2018-Feb-20 21:00N 37°45' E 023°40'918.3
2018-Feb-20 20:30N 37°53' E 023°37'4 7.3
2018-Feb-20 20:00N 37°57' E 023°36'0 1.0
2018-Feb-20 19:29N 37°57' E 023°36'0 0.0
2018-Feb-20 19:00N 37°57' E 023°36'0 0.0
2018-Feb-20 18:29N 37°57' E 023°36'0 0.0
2018-Feb-20 17:59N 37°57' E 023°36'0 0.0
2018-Feb-20 17:29N 37°57' E 023°36'0 0.0
2018-Feb-20 16:59N 37°57' E 023°36'0 0.0
2018-Feb-20 16:29N 37°57' E 023°36'0 0.0
2018-Feb-20 15:59N 37°57' E 023°36'0 0.0
2018-Feb-20 15:29N 37°57' E 023°36'0 0.0
2018-Feb-20 14:59N 37°57' E 023°36'0 0.0
2018-Feb-20 14:29N 37°57' E 023°36'0 0.0
2018-Feb-20 14:00N 37°57' E 023°36'0 0.0
2018-Feb-20 13:29N 37°57' E 023°36'0 0.0
2018-Feb-20 13:00N 37°57' E 023°36'0 0.0
2018-Feb-20 12:30N 37°57' E 023°36'0 0.0
2018-Feb-20 12:00N 37°57' E 023°36'0 0.0
2018-Feb-20 11:29N 37°57' E 023°36'0 0.0
2018-Feb-20 10:59N 37°57' E 023°36'0 0.0
2018-Feb-20 10:29N 37°57' E 023°36'0 0.0
2018-Feb-20 09:59N 37°57' E 023°36'0 0.0
2018-Feb-20 09:29N 37°57' E 023°36'0 0.1
2018-Feb-20 09:00N 37°57' E 023°36'2 4.1
2018-Feb-20 08:30N 37°56' E 023°35'2 4.3
2018-Feb-20 08:00N 37°53' E 023°35'2 3.0
2018-Feb-20 07:30N 37°52' E 023°35'0 0.8
2018-Feb-20 07:00N 37°52' E 023°35'1 1.0
2018-Feb-20 06:30N 37°53' E 023°35'0 0.4
2018-Feb-20 06:00N 37°53' E 023°36'1 1.1
2018-Feb-20 05:30N 37°52' E 023°35'0 0.9
2018-Feb-20 05:00N 37°53' E 023°36'0 0.9
2018-Feb-20 04:30N 37°53' E 023°36'0 0.5
2018-Feb-20 04:00N 37°53' E 023°36'1 1.4
2018-Feb-20 03:30N 37°53' E 023°37'611.0
2018-Feb-20 03:00N 37°48' E 023°41'612.0
2018-Feb-20 02:30N 37°43' E 023°44'612.0
2018-Feb-20 02:00N 37°38' E 023°49'713.5
2018-Feb-20 01:30N 37°33' E 023°54'  

Dump ship's entire track history